createdAt,value
2023-03-19T00:00:44.912Z,99485.38
2023-03-19T00:03:11.922Z,99488.50
2023-03-19T00:05:38.977Z,99486.41
2023-03-19T00:08:06.155Z,99471.81
2023-03-19T00:10:33.120Z,99468.16
2023-03-19T00:13:00.604Z,99472.91
2023-03-19T00:15:27.618Z,99480.97
2023-03-19T00:17:56.445Z,99474.66
2023-03-19T00:20:23.389Z,99491.16
2023-03-19T00:22:50.465Z,99494.16
2023-03-19T00:25:17.736Z,99498.34
2023-03-19T00:27:44.778Z,99500.44
2023-03-19T00:30:12.437Z,99511.38
2023-03-19T00:32:40.420Z,99517.75
2023-03-19T00:35:08.653Z,99511.22
2023-03-19T00:37:37.337Z,99508.75
2023-03-19T00:40:05.600Z,99501.75
2023-03-19T00:42:34.587Z,99498.47
2023-03-19T00:45:01.534Z,99496.41
2023-03-19T00:47:28.609Z,99497.00
2023-03-19T00:49:56.070Z,99506.25
2023-03-19T00:52:23.039Z,99509.53
2023-03-19T00:54:50.301Z,99487.69
2023-03-19T00:57:18.789Z,99491.81
2023-03-19T00:59:45.812Z,99491.63
2023-03-19T01:02:12.747Z,99492.28
2023-03-19T01:04:39.780Z,99493.53
2023-03-19T01:07:07.004Z,99484.28
2023-03-19T01:09:35.835Z,99489.06
2023-03-19T01:12:04.736Z,99486.16
2023-03-19T01:14:32.520Z,99482.81
2023-03-19T01:17:00.179Z,99478.66
2023-03-19T01:19:27.539Z,99478.22
2023-03-19T01:21:54.627Z,99473.47
2023-03-19T01:24:23.002Z,99475.72
2023-03-19T01:26:53.593Z,99485.41
2023-03-19T01:29:32.005Z,99482.13
2023-03-19T01:32:06.051Z,99490.59
2023-03-19T01:34:59.220Z,99497.47
2023-03-19T01:37:26.493Z,99503.50
2023-03-19T01:39:53.653Z,99518.72
2023-03-19T01:42:20.672Z,99514.22
2023-03-19T01:44:47.757Z,99516.44
2023-03-19T01:47:34.148Z,99515.72
2023-03-19T01:50:31.806Z,99512.16
2023-03-19T01:53:17.657Z,99517.53
2023-03-19T01:56:04.183Z,99513.03
2023-03-19T01:58:42.106Z,99516.31
2023-03-19T02:01:28.207Z,99520.44
2023-03-19T02:03:57.159Z,99517.53
2023-03-19T02:06:30.113Z,99516.69
2023-03-19T02:08:58.984Z,99521.63
2023-03-19T02:11:26.353Z,99522.22
2023-03-19T02:13:53.609Z,99515.81
2023-03-19T02:16:21.238Z,99520.78
2023-03-19T02:18:49.334Z,99532.72
2023-03-19T02:21:18.430Z,99534.75
2023-03-19T02:24:23.233Z,99540.13
2023-03-19T02:27:02.014Z,99541.97
2023-03-19T02:29:29.609Z,99537.66
2023-03-19T02:31:59.508Z,99541.75
2023-03-19T02:34:26.341Z,99549.78
2023-03-19T02:37:03.391Z,99549.78
2023-03-19T02:39:49.253Z,99538.47
2023-03-19T02:42:18.787Z,99538.09
2023-03-19T02:44:46.198Z,99533.97
2023-03-19T02:47:13.625Z,99547.56
2023-03-19T02:49:40.619Z,99540.56
2023-03-19T02:52:08.061Z,99541.78
2023-03-19T02:54:35.189Z,99535.84
2023-03-19T02:57:02.198Z,99534.81
2023-03-19T02:59:29.177Z,99535.63
2023-03-19T03:01:56.563Z,99537.69
2023-03-19T03:04:23.574Z,99528.25
2023-03-19T03:06:50.536Z,99529.06
2023-03-19T03:09:18.211Z,99544.31
2023-03-19T03:11:45.315Z,99545.34
2023-03-19T03:14:12.453Z,99545.94
2023-03-19T03:16:39.550Z,99557.69
2023-03-19T03:19:07.041Z,99552.53
2023-03-19T03:21:35.681Z,99547.38
2023-03-19T03:24:04.018Z,99544.72
2023-03-19T03:26:31.657Z,99541.66
2023-03-19T03:28:58.618Z,99544.72
2023-03-19T03:31:26.964Z,99550.06
2023-03-19T03:33:54.170Z,99552.53
2023-03-19T03:36:21.489Z,99555.19
2023-03-19T03:38:48.472Z,99552.53
2023-03-19T03:41:15.949Z,99562.00
2023-03-19T03:43:42.950Z,99561.59
2023-03-19T03:46:10.095Z,99562.22
2023-03-19T03:48:37.409Z,99563.06
2023-03-19T03:51:04.549Z,99557.28
2023-03-19T03:53:32.831Z,99568.41
2023-03-19T03:56:01.366Z,99564.91
2023-03-19T03:58:29.899Z,99570.47
2023-03-19T04:00:56.906Z,99571.69
2023-03-19T04:03:24.566Z,99568.41
2023-03-19T04:05:52.364Z,99569.44
2023-03-19T04:08:21.223Z,99578.47
2023-03-19T04:10:48.379Z,99570.66
2023-03-19T04:13:15.457Z,99584.03
2023-03-19T04:15:43.841Z,99570.66
2023-03-19T04:18:12.161Z,99567.97
2023-03-19T04:20:40.075Z,99578.88
2023-03-19T04:23:07.189Z,99581.34
2023-03-19T04:25:34.361Z,99577.63
2023-03-19T04:28:01.986Z,99580.97
2023-03-19T04:30:29.315Z,99577.88
2023-03-19T04:32:56.711Z,99583.00
2023-03-19T04:35:24.025Z,99580.56
2023-03-19T04:37:51.599Z,99577.88
2023-03-19T04:40:20.557Z,99588.19
2023-03-19T04:42:48.575Z,99592.25
2023-03-19T04:45:28.768Z,99590.63
2023-03-19T04:47:56.279Z,99593.28
2023-03-19T04:50:23.448Z,99594.94
2023-03-19T04:52:51.061Z,99593.94
2023-03-19T04:55:18.285Z,99592.91
2023-03-19T04:58:02.354Z,99595.34
2023-03-19T05:00:32.676Z,99602.56
2023-03-19T05:03:00.116Z,99605.25
2023-03-19T05:05:29.100Z,99612.66
2023-03-19T05:07:57.386Z,99615.94
2023-03-19T05:10:25.055Z,99603.59
2023-03-19T05:12:52.314Z,99605.84
2023-03-19T05:15:19.744Z,99599.03
2023-03-19T05:17:57.731Z,99604.59
2023-03-19T05:20:31.399Z,99603.19
2023-03-19T05:23:05.310Z,99606.88
2023-03-19T05:25:41.845Z,99613.25
2023-03-19T05:28:11.460Z,99619.63
2023-03-19T05:30:38.640Z,99608.94
2023-03-19T05:33:10.725Z,99608.09
2023-03-19T05:35:41.281Z,99614.69
2023-03-19T05:38:22.086Z,99611.00
2023-03-19T05:40:55.716Z,99620.06
2023-03-19T05:43:32.572Z,99614.69
2023-03-19T05:46:01.698Z,99618.19
2023-03-19T05:48:33.417Z,99613.88
2023-03-19T05:51:01.886Z,99621.09
2023-03-19T05:53:34.628Z,99625.19
2023-03-19T05:56:21.696Z,99629.50
2023-03-19T05:59:00.276Z,99626.84
2023-03-19T06:01:34.931Z,99636.91
2023-03-19T06:04:03.676Z,99637.13
2023-03-19T06:06:31.797Z,99635.47
2023-03-19T06:08:58.759Z,99641.84
2023-03-19T06:11:34.052Z,99652.53
2023-03-19T06:14:24.152Z,99649.25
2023-03-19T06:17:09.745Z,99645.97
2023-03-19T06:19:36.953Z,99655.84
2023-03-19T06:22:04.215Z,99652.34
2023-03-19T06:24:31.357Z,99653.38
2023-03-19T06:26:58.384Z,99648.22
2023-03-19T06:29:26.968Z,99658.09
2023-03-19T06:32:00.449Z,99655.84
2023-03-19T06:34:36.689Z,99661.81
2023-03-19T06:37:03.696Z,99659.94
2023-03-19T06:39:30.636Z,99660.38
2023-03-19T06:41:57.629Z,99660.38
2023-03-19T06:44:27.305Z,99660.78
2023-03-19T06:46:54.307Z,99655.03
2023-03-19T06:49:21.949Z,99655.84
2023-03-19T06:51:48.941Z,99660.78
2023-03-19T06:54:16.204Z,99667.38
2023-03-19T06:56:43.686Z,99664.06
2023-03-19T06:59:13.029Z,99661.59
2023-03-19T07:01:43.093Z,99665.31
2023-03-19T07:04:11.180Z,99677.66
2023-03-19T07:06:38.302Z,99671.91
2023-03-19T07:09:05.317Z,99673.13
2023-03-19T07:11:35.191Z,99681.38
2023-03-19T07:14:04.007Z,99685.69
2023-03-19T07:16:31.406Z,99683.63
2023-03-19T07:18:58.439Z,99676.00
2023-03-19T07:21:25.580Z,99683.47
2023-03-19T07:23:52.522Z,99690.47
2023-03-19T07:26:19.519Z,99689.22
2023-03-19T07:28:46.662Z,99694.16
2023-03-19T07:31:14.218Z,99694.56
2023-03-19T07:33:41.281Z,99697.88
2023-03-19T07:36:08.763Z,99705.47
2023-03-19T07:38:35.841Z,99694.56
2023-03-19T07:41:03.240Z,99694.16
2023-03-19T07:43:31.437Z,99708.53
2023-03-19T07:45:59.166Z,99701.16
2023-03-19T07:48:26.587Z,99703.41
2023-03-19T07:50:54.240Z,99697.44
2023-03-19T07:53:21.425Z,99704.84
2023-03-19T07:55:49.028Z,99704.03
2023-03-19T07:58:16.939Z,99695.34
2023-03-19T08:00:45.091Z,99694.72
2023-03-19T08:03:12.730Z,99705.22
2023-03-19T08:05:39.984Z,99700.69
2023-03-19T08:08:07.233Z,99693.28
2023-03-19T08:10:36.479Z,99696.97
2023-03-19T08:13:05.279Z,99698.66
2023-03-19T08:15:33.193Z,99700.88
2023-03-19T08:18:01.595Z,99699.84
2023-03-19T08:20:28.630Z,99698.63
2023-03-19T08:22:57.484Z,99696.78
2023-03-19T08:25:25.724Z,99696.78
2023-03-19T08:27:53.001Z,99702.28
2023-03-19T08:30:19.977Z,99706.22
2023-03-19T08:32:47.076Z,99692.19
2023-03-19T08:35:14.200Z,99703.53
2023-03-19T08:37:41.134Z,99710.50
2023-03-19T08:40:09.801Z,99704.91
2023-03-19T08:42:44.353Z,99707.16
2023-03-19T08:45:14.875Z,99704.19
2023-03-19T08:47:43.501Z,99705.56
2023-03-19T08:50:11.405Z,99706.53
2023-03-19T08:52:38.433Z,99708.09
2023-03-19T08:55:06.206Z,99708.84
2023-03-19T08:57:33.690Z,99704.16
2023-03-19T09:00:01.856Z,99708.41
2023-03-19T09:02:28.825Z,99716.75
2023-03-19T09:04:55.838Z,99713.38
2023-03-19T09:07:22.940Z,99715.38
2023-03-19T09:09:50.436Z,99720.69
2023-03-19T09:12:18.879Z,99713.25
2023-03-19T09:14:45.870Z,99716.28
2023-03-19T09:17:13.682Z,99716.47
2023-03-19T09:19:41.572Z,99713.91
2023-03-19T09:22:08.536Z,99705.53
2023-03-19T09:24:35.491Z,99710.38
2023-03-19T09:27:02.808Z,99705.47
2023-03-19T09:29:29.906Z,99704.69
2023-03-19T09:31:56.849Z,99718.59
2023-03-19T09:34:24.477Z,99712.22
2023-03-19T09:36:51.434Z,99720.13
2023-03-19T09:39:18.452Z,99720.84
2023-03-19T09:42:10.656Z,99732.44
2023-03-19T09:44:41.185Z,99727.44
2023-03-19T09:47:28.768Z,99727.38
2023-03-19T09:49:59.971Z,99733.47
2023-03-19T09:52:53.867Z,99733.38
2023-03-19T09:55:47.935Z,99722.63
2023-03-19T09:58:21.294Z,99723.47
2023-03-19T10:00:52.259Z,99726.97
2023-03-19T10:03:31.589Z,99726.75
2023-03-19T10:06:21.153Z,99727.13
2023-03-19T10:09:37.156Z,99732.38
2023-03-19T10:12:22.811Z,99719.97
2023-03-19T10:15:31.945Z,99718.66
2023-03-19T10:18:12.237Z,99710.94
2023-03-19T10:21:12.644Z,99721.09
2023-03-19T10:23:46.812Z,99724.00
2023-03-19T10:26:18.037Z,99710.78
2023-03-19T10:29:02.611Z,99711.09
2023-03-19T10:31:51.837Z,99710.03
2023-03-19T10:34:33.554Z,99712.38
2023-03-19T10:37:14.865Z,99708.22
2023-03-19T10:39:45.389Z,99708.34
2023-03-19T10:42:41.231Z,99702.78
2023-03-19T10:45:32.284Z,99696.75
2023-03-19T10:48:02.681Z,99690.88
2023-03-19T10:50:42.677Z,99687.53
2023-03-19T10:53:15.278Z,99687.94
2023-03-19T10:55:53.219Z,99692.75
2023-03-19T10:58:25.628Z,99695.28
2023-03-19T11:01:09.533Z,99679.22
2023-03-19T11:03:51.354Z,99688.31
2023-03-19T11:06:33.694Z,99688.25
2023-03-19T11:12:25.376Z,99681.06
2023-03-19T11:14:56.294Z,99675.78
2023-03-19T11:17:40.395Z,99682.69
2023-03-19T11:20:36.281Z,99683.63
2023-03-19T11:23:13.865Z,99689.28
2023-03-19T11:25:52.424Z,99697.13
2023-03-19T11:28:26.811Z,99680.59
2023-03-19T11:31:50.297Z,99682.97
2023-03-19T11:34:25.512Z,99674.03
2023-03-19T11:37:16.411Z,99672.53
2023-03-19T11:39:58.620Z,99671.56
2023-03-19T11:42:52.219Z,99665.47
2023-03-19T11:45:33.473Z,99676.38
2023-03-19T11:48:33.839Z,99673.97
2023-03-19T11:51:46.962Z,99667.16
2023-03-19T11:54:44.023Z,99666.97
2023-03-19T11:57:52.570Z,99666.84
2023-03-19T12:00:52.144Z,99665.88
2023-03-19T12:03:50.007Z,99661.00
2023-03-19T12:06:24.891Z,99668.28
2023-03-19T12:09:23.886Z,99665.25
2023-03-19T12:12:27.177Z,99660.81
2023-03-19T12:15:36.001Z,99674.88
2023-03-19T12:18:39.909Z,99673.03
2023-03-19T12:21:15.797Z,99686.16
2023-03-19T12:24:25.090Z,99670.88
2023-03-19T12:27:33.644Z,99684.06
2023-03-19T12:30:15.544Z,99664.72
2023-03-19T12:33:09.992Z,99667.94
2023-03-19T12:35:40.816Z,99661.63
2023-03-19T12:38:46.469Z,99669.81
2023-03-19T12:41:31.397Z,99667.59
2023-03-19T12:44:25.846Z,99661.94
2023-03-19T12:47:09.661Z,99671.97
2023-03-19T12:50:07.116Z,99667.66
2023-03-19T12:52:39.980Z,99668.56
2023-03-19T12:55:26.566Z,99674.94
2023-03-19T12:58:24.210Z,99675.97
2023-03-19T13:01:08.937Z,99678.16
2023-03-19T13:04:04.261Z,99676.84
2023-03-19T13:06:47.750Z,99675.03
2023-03-19T13:09:33.757Z,99674.03
2023-03-19T13:12:25.660Z,99676.78
2023-03-19T13:15:07.179Z,99675.69
2023-03-19T13:17:42.224Z,99679.03
2023-03-19T13:20:27.629Z,99678.81
2023-03-19T13:23:03.128Z,99681.91
2023-03-19T13:25:39.803Z,99677.72
2023-03-19T13:28:30.579Z,99684.88
2023-03-19T13:31:17.670Z,99680.69
2023-03-19T13:34:05.069Z,99679.75
2023-03-19T13:36:41.671Z,99681.28
2023-03-19T13:39:18.917Z,99678.91
2023-03-19T13:41:57.836Z,99674.00
2023-03-19T13:44:32.490Z,99676.09
2023-03-19T13:47:25.556Z,99675.53
2023-03-19T13:50:22.722Z,99674.16
2023-03-19T13:52:52.380Z,99682.44
2023-03-19T13:55:27.969Z,99682.94
2023-03-19T13:58:12.198Z,99684.69
2023-03-19T14:00:42.829Z,99691.25
2023-03-19T14:03:30.832Z,99687.63
2023-03-19T14:05:59.582Z,99685.63
2023-03-19T14:08:51.620Z,99695.00
2023-03-19T14:11:33.738Z,99691.38
2023-03-19T14:14:08.740Z,99689.75
2023-03-19T14:16:41.898Z,99685.66
2023-03-19T14:19:17.809Z,99690.66
2023-03-19T14:21:59.966Z,99683.66
2023-03-19T14:24:58.247Z,99675.19
2023-03-19T14:27:33.074Z,99676.38
2023-03-19T14:30:16.594Z,99677.56
2023-03-19T14:32:47.930Z,99678.47
2023-03-19T14:35:20.494Z,99670.50
2023-03-19T14:37:52.125Z,99670.75
2023-03-19T14:40:32.694Z,99673.09
2023-03-19T14:43:22.183Z,99667.34
2023-03-19T14:46:03.936Z,99670.13
2023-03-19T14:48:55.133Z,99674.84
2023-03-19T14:51:24.649Z,99673.88
2023-03-19T14:54:03.280Z,99678.78
2023-03-19T14:56:36.615Z,99679.75
2023-03-19T14:59:06.051Z,99677.38
2023-03-19T15:01:41.034Z,99676.09
2023-03-19T15:04:12.339Z,99672.59
2023-03-19T15:06:42.802Z,99669.28
2023-03-19T15:09:32.169Z,99673.75
2023-03-19T15:13:08.921Z,99671.41
2023-03-19T15:16:13.704Z,99666.97
2023-03-19T15:18:40.858Z,99668.75
2023-03-19T15:21:08.007Z,99673.78
2023-03-19T15:23:46.990Z,99673.41
2023-03-19T15:26:15.697Z,99676.84
2023-03-19T15:28:53.744Z,99676.25
2023-03-19T15:31:38.287Z,99671.34
2023-03-19T15:34:27.819Z,99676.38
2023-03-19T15:37:02.765Z,99674.97
2023-03-19T15:39:45.244Z,99682.47
2023-03-19T15:42:16.103Z,99682.94
2023-03-19T15:44:49.135Z,99682.34
2023-03-19T15:47:32.124Z,99683.66
2023-03-19T15:50:16.572Z,99684.69
2023-03-19T15:52:50.738Z,99680.34
2023-03-19T15:55:18.564Z,99687.63
2023-03-19T15:57:45.733Z,99687.63
2023-03-19T16:00:14.639Z,99681.16
2023-03-19T16:02:45.818Z,99692.56
2023-03-19T16:05:31.530Z,99690.69
2023-03-19T16:08:02.007Z,99692.31
2023-03-19T16:10:28.940Z,99694.78
2023-03-19T16:12:56.702Z,99694.78
2023-03-19T16:15:44.197Z,99692.66
2023-03-19T16:18:17.249Z,99690.56
2023-03-19T16:21:14.720Z,99684.13
2023-03-19T16:23:49.869Z,99691.13
2023-03-19T16:26:41.359Z,99697.09
2023-03-19T16:29:26.461Z,99696.06
2023-03-19T16:32:02.453Z,99702.03
2023-03-19T16:34:37.407Z,99700.97
2023-03-19T16:37:43.621Z,99697.72
2023-03-19T16:40:13.702Z,99703.56
2023-03-19T16:42:46.270Z,99710.69
2023-03-19T16:45:30.711Z,99719.03
2023-03-19T16:48:03.296Z,99710.47
2023-03-19T16:50:40.911Z,99720.31
2023-03-19T16:53:24.028Z,99726.38
2023-03-19T16:55:53.148Z,99724.41
2023-03-19T16:58:36.978Z,99724.28
2023-03-19T17:01:22.122Z,99733.84
2023-03-19T17:03:50.386Z,99740.78
2023-03-19T17:06:18.929Z,99746.59
2023-03-19T17:08:47.043Z,99748.34
2023-03-19T17:11:39.801Z,99747.19
2023-03-19T17:14:15.389Z,99754.28
2023-03-19T17:16:50.443Z,99749.81
2023-03-19T17:19:26.591Z,99751.75
2023-03-19T17:21:58.545Z,99760.75
2023-03-19T17:24:34.347Z,99765.63
2023-03-19T17:27:04.166Z,99770.72
2023-03-19T17:29:33.220Z,99773.13
2023-03-19T17:32:04.147Z,99772.81
2023-03-19T17:34:36.237Z,99775.00
2023-03-19T17:37:06.590Z,99780.69
2023-03-19T17:39:34.062Z,99778.50
2023-03-19T17:42:01.101Z,99790.13
2023-03-19T17:44:28.271Z,99784.81
2023-03-19T17:46:56.604Z,99789.91
2023-03-19T17:49:28.836Z,99794.53
2023-03-19T17:51:57.873Z,99788.34
2023-03-19T17:54:28.616Z,99793.97
2023-03-19T17:56:56.074Z,99802.09
2023-03-19T17:59:23.696Z,99810.00
2023-03-19T18:01:51.973Z,99810.06
2023-03-19T18:04:22.147Z,99810.94
2023-03-19T18:06:56.882Z,99817.16
2023-03-19T18:09:32.607Z,99816.81
2023-03-19T18:11:59.718Z,99816.03
2023-03-19T18:14:26.777Z,99813.59
2023-03-19T18:16:53.882Z,99832.22
2023-03-19T18:19:31.388Z,99827.09
2023-03-19T18:21:58.922Z,99833.31
2023-03-19T18:24:25.976Z,99837.66
2023-03-19T18:26:53.501Z,99834.00
2023-03-19T18:29:20.981Z,99837.94
2023-03-19T18:31:50.048Z,99836.53
2023-03-19T18:34:17.779Z,99834.72
2023-03-19T18:36:45.006Z,99841.28
2023-03-19T18:39:16.429Z,99844.19
2023-03-19T18:41:44.381Z,99838.47
2023-03-19T18:44:12.226Z,99847.72
2023-03-19T18:46:41.634Z,99847.75
2023-03-19T18:49:25.039Z,99850.25
2023-03-19T18:52:08.917Z,99849.63
2023-03-19T18:54:36.076Z,99854.38
2023-03-19T18:57:03.282Z,99848.19
2023-03-19T18:59:33.694Z,99849.44
2023-03-19T19:02:20.664Z,99845.31
2023-03-19T19:04:48.382Z,99852.94
2023-03-19T19:07:17.214Z,99854.16
2023-03-19T19:09:44.372Z,99856.44
2023-03-19T19:12:18.399Z,99867.16
2023-03-19T19:14:47.095Z,99865.88
2023-03-19T19:17:20.172Z,99868.97
2023-03-19T19:19:47.700Z,99865.06
2023-03-19T19:22:17.550Z,99864.63
2023-03-19T19:24:45.301Z,99861.75
2023-03-19T19:27:23.999Z,99866.25
2023-03-19T19:29:51.877Z,99869.31
2023-03-19T19:32:29.441Z,99871.38
2023-03-19T19:34:57.012Z,99870.75
2023-03-19T19:37:24.226Z,99871.16
2023-03-19T19:39:52.238Z,99871.91
2023-03-19T19:42:22.459Z,99868.00
2023-03-19T19:44:58.595Z,99871.06
2023-03-19T19:47:27.591Z,99880.53
2023-03-19T19:49:56.376Z,99886.06
2023-03-19T19:52:23.561Z,99882.16
2023-03-19T19:54:51.699Z,99884.19
2023-03-19T19:57:24.531Z,99889.34
2023-03-19T19:59:53.143Z,99894.06
2023-03-19T20:02:28.680Z,99895.28
2023-03-19T20:04:57.706Z,99903.09
2023-03-19T20:07:24.911Z,99902.88
2023-03-19T20:09:52.002Z,99909.66
2023-03-19T20:12:27.781Z,99910.03
2023-03-19T20:14:54.945Z,99917.84
2023-03-19T20:17:22.512Z,99920.53
2023-03-19T20:19:49.784Z,99924.41
2023-03-19T20:22:17.335Z,99929.94
2023-03-19T20:24:48.254Z,99926.66
2023-03-19T20:27:21.126Z,99934.03
2023-03-19T20:29:50.570Z,99938.13
2023-03-19T20:32:27.435Z,99934.84
2023-03-19T20:34:54.568Z,99939.53
2023-03-19T20:37:21.645Z,99943.63
2023-03-19T20:39:49.058Z,99942.97
2023-03-19T20:42:16.731Z,99944.81
2023-03-19T20:44:44.777Z,99940.72
2023-03-19T20:47:25.495Z,99949.75
2023-03-19T20:49:53.406Z,99948.09
2023-03-19T20:52:21.326Z,99962.47
2023-03-19T20:54:48.847Z,99959.78
2023-03-19T20:57:22.645Z,99966.16
2023-03-19T20:59:50.154Z,99956.69
2023-03-19T21:02:21.963Z,99959.94
2023-03-19T21:04:49.234Z,99959.94
2023-03-19T21:07:34.430Z,99969.59
2023-03-19T21:10:14.548Z,99974.72
2023-03-19T21:12:45.198Z,99974.53
2023-03-19T21:15:15.300Z,99978.22
2023-03-19T21:17:42.636Z,99975.09
2023-03-19T21:20:19.123Z,99981.66
2023-03-19T21:22:52.750Z,99983.69
2023-03-19T21:25:24.914Z,99984.69
2023-03-19T21:27:56.357Z,99984.91
2023-03-19T21:30:23.633Z,99984.47
2023-03-19T21:32:51.501Z,99986.69
2023-03-19T21:35:22.363Z,99991.41
2023-03-19T21:37:49.968Z,99992.44
2023-03-19T21:40:30.918Z,99995.47
2023-03-19T21:43:00.700Z,99998.53
2023-03-19T21:45:35.456Z,100006.53
2023-03-19T21:48:15.757Z,100003.41
2023-03-19T21:50:43.024Z,100006.06
2023-03-19T21:53:10.891Z,100007.31
2023-03-19T21:55:38.149Z,100008.47
2023-03-19T21:58:10.340Z,100013.00
2023-03-19T22:00:37.325Z,100015.03
2023-03-19T22:03:04.322Z,100017.72
2023-03-19T22:05:31.444Z,100021.41
2023-03-19T22:07:58.404Z,100020.38
2023-03-19T22:10:30.773Z,100023.25
2023-03-19T22:12:57.809Z,100027.09
2023-03-19T22:15:37.467Z,100027.50
2023-03-19T22:18:11.941Z,100036.34
2023-03-19T22:20:38.884Z,100034.88
2023-03-19T22:23:06.156Z,100040.22
2023-03-19T22:25:36.070Z,100035.44
2023-03-19T22:28:25.884Z,100034.63
2023-03-19T22:30:53.156Z,100038.31
2023-03-19T22:33:24.325Z,100042.34
2023-03-19T22:35:51.801Z,100041.91
2023-03-19T22:38:21.581Z,100041.44
2023-03-19T22:40:55.894Z,100040.63
2023-03-19T22:43:30.574Z,100041.44
2023-03-19T22:46:13.447Z,100038.31
2023-03-19T22:48:41.893Z,100031.97
2023-03-19T22:51:13.976Z,100031.16
2023-03-19T22:53:41.149Z,100041.38
2023-03-19T22:56:11.364Z,100034.56
2023-03-19T22:58:38.493Z,100045.88
2023-03-19T23:01:31.257Z,100047.91
2023-03-19T23:04:14.120Z,100040.91
2023-03-19T23:06:41.141Z,100037.38
2023-03-19T23:09:20.296Z,100039.09
2023-03-19T23:11:50.942Z,100039.22
2023-03-19T23:14:29.131Z,100022.22
2023-03-19T23:17:03.391Z,100021.56
2023-03-19T23:19:38.317Z,100023.59
2023-03-19T23:22:07.404Z,100023.94
2023-03-19T23:24:34.650Z,100029.66
2023-03-19T23:27:02.636Z,100018.53
2023-03-19T23:29:44.007Z,100026.38
2023-03-19T23:32:11.424Z,100034.72
2023-03-19T23:34:55.683Z,100032.06
2023-03-19T23:37:24.908Z,100032.44
2023-03-19T23:39:51.869Z,100031.44
2023-03-19T23:42:28.660Z,100031.44
2023-03-19T23:45:01.217Z,100031.63
2023-03-19T23:47:29.606Z,100027.13
2023-03-19T23:49:57.089Z,100027.13
2023-03-19T23:52:24.031Z,100023.78
2023-03-19T23:54:52.300Z,100028.28
2023-03-19T23:57:20.794Z,100038.53
2023-03-19T23:59:51.504Z,100037.84
